sensor_id;sensor_type;location;lat;lon;timestamp;temperature;humidity
20856;DHT22;63058;49.424;8.420;2023-06-26T00:02:01;28.00;44.70
20856;DHT22;63058;49.424;8.420;2023-06-26T00:04:26;27.80;44.80
20856;DHT22;63058;49.424;8.420;2023-06-26T00:07:01;27.80;45.00
20856;DHT22;63058;49.424;8.420;2023-06-26T00:09:26;27.70;45.10
20856;DHT22;63058;49.424;8.420;2023-06-26T00:11:52;27.60;45.20
20856;DHT22;63058;49.424;8.420;2023-06-26T00:14:17;27.60;45.30
20856;DHT22;63058;49.424;8.420;2023-06-26T00:16:46;27.60;45.40
20856;DHT22;63058;49.424;8.420;2023-06-26T00:19:12;27.50;45.50
20856;DHT22;63058;49.424;8.420;2023-06-26T00:21:37;27.50;46.30
20856;DHT22;63058;49.424;8.420;2023-06-26T00:24:03;27.40;45.70
20856;DHT22;63058;49.424;8.420;2023-06-26T00:26:29;27.40;45.80
20856;DHT22;63058;49.424;8.420;2023-06-26T00:28:54;27.40;46.60
20856;DHT22;63058;49.424;8.420;2023-06-26T00:31:20;27.30;45.90
20856;DHT22;63058;49.424;8.420;2023-06-26T00:33:45;27.20;46.00
20856;DHT22;63058;49.424;8.420;2023-06-26T00:36:11;27.20;46.00
20856;DHT22;63058;49.424;8.420;2023-06-26T00:38:36;27.20;46.00
20856;DHT22;63058;49.424;8.420;2023-06-26T00:41:02;27.10;46.10
20856;DHT22;63058;49.424;8.420;2023-06-26T00:43:27;27.20;46.40
20856;DHT22;63058;49.424;8.420;2023-06-26T00:45:53;27.00;47.00
20856;DHT22;63058;49.424;8.420;2023-06-26T00:48:18;27.00;46.60
20856;DHT22;63058;49.424;8.420;2023-06-26T00:50:45;26.90;46.60
20856;DHT22;63058;49.424;8.420;2023-06-26T00:53:11;26.90;46.60
20856;DHT22;63058;49.424;8.420;2023-06-26T00:55:37;26.90;46.70
20856;DHT22;63058;49.424;8.420;2023-06-26T00:58:02;26.90;46.80
20856;DHT22;63058;49.424;8.420;2023-06-26T01:00:28;26.90;46.80
20856;DHT22;63058;49.424;8.420;2023-06-26T01:02:54;26.80;46.90
20856;DHT22;63058;49.424;8.420;2023-06-26T01:05:25;26.80;47.00
20856;DHT22;63058;49.424;8.420;2023-06-26T01:07:50;26.80;47.00
20856;DHT22;63058;49.424;8.420;2023-06-26T01:10:16;26.80;47.10
20856;DHT22;63058;49.424;8.420;2023-06-26T01:12:43;26.70;47.10
20856;DHT22;63058;49.424;8.420;2023-06-26T01:15:09;26.70;47.10
20856;DHT22;63058;49.424;8.420;2023-06-26T01:17:36;26.70;47.10
20856;DHT22;63058;49.424;8.420;2023-06-26T01:20:05;26.60;47.10
20856;DHT22;63058;49.424;8.420;2023-06-26T01:22:37;26.60;47.20
20856;DHT22;63058;49.424;8.420;2023-06-26T01:28:04;26.50;47.70
20856;DHT22;63058;49.424;8.420;2023-06-26T01:30:32;26.40;47.10
20856;DHT22;63058;49.424;8.420;2023-06-26T01:32:58;26.50;47.40
20856;DHT22;63058;49.424;8.420;2023-06-26T01:35:25;26.40;47.50
20856;DHT22;63058;49.424;8.420;2023-06-26T01:37:50;26.40;47.60
20856;DHT22;63058;49.424;8.420;2023-06-26T01:40:16;26.30;47.60
20856;DHT22;63058;49.424;8.420;2023-06-26T01:42:41;26.30;47.60
20856;DHT22;63058;49.424;8.420;2023-06-26T01:45:24;26.20;47.70
20856;DHT22;63058;49.424;8.420;2023-06-26T01:47:51;26.10;48.40
20856;DHT22;63058;49.424;8.420;2023-06-26T01:50:22;26.10;48.00
20856;DHT22;63058;49.424;8.420;2023-06-26T01:53:02;26.00;48.30
20856;DHT22;63058;49.424;8.420;2023-06-26T01:55:46;26.00;48.20
20856;DHT22;63058;49.424;8.420;2023-06-26T01:58:13;26.00;48.50
20856;DHT22;63058;49.424;8.420;2023-06-26T02:00:40;26.00;48.20
20856;DHT22;63058;49.424;8.420;2023-06-26T02:03:06;26.10;48.30
20856;DHT22;63058;49.424;8.420;2023-06-26T02:05:32;25.90;48.30
20856;DHT22;63058;49.424;8.420;2023-06-26T02:07:58;25.90;48.40
20856;DHT22;63058;49.424;8.420;2023-06-26T02:10:24;25.80;48.30
20856;DHT22;63058;49.424;8.420;2023-06-26T02:12:49;25.80;48.40
20856;DHT22;63058;49.424;8.420;2023-06-26T02:15:15;25.80;48.40
20856;DHT22;63058;49.424;8.420;2023-06-26T02:17:40;25.80;48.60
20856;DHT22;63058;49.424;8.420;2023-06-26T02:20:06;25.70;48.50
20856;DHT22;63058;49.424;8.420;2023-06-26T02:22:33;25.70;48.60
20856;DHT22;63058;49.424;8.420;2023-06-26T02:24:59;25.70;48.60
20856;DHT22;63058;49.424;8.420;2023-06-26T02:27:24;25.70;48.70
20856;DHT22;63058;49.424;8.420;2023-06-26T02:29:50;25.70;48.80
20856;DHT22;63058;49.424;8.420;2023-06-26T02:32:16;25.70;48.80
20856;DHT22;63058;49.424;8.420;2023-06-26T02:34:41;25.60;48.70
20856;DHT22;63058;49.424;8.420;2023-06-26T02:37:07;25.60;48.90
20856;DHT22;63058;49.424;8.420;2023-06-26T02:39:33;25.60;48.90
20856;DHT22;63058;49.424;8.420;2023-06-26T02:42:00;25.60;49.00
20856;DHT22;63058;49.424;8.420;2023-06-26T02:44:25;25.50;49.10
20856;DHT22;63058;49.424;8.420;2023-06-26T02:46:52;25.50;49.10
20856;DHT22;63058;49.424;8.420;2023-06-26T02:49:17;25.50;49.20
20856;DHT22;63058;49.424;8.420;2023-06-26T02:51:43;25.40;49.80
20856;DHT22;63058;49.424;8.420;2023-06-26T02:54:08;25.50;49.30
20856;DHT22;63058;49.424;8.420;2023-06-26T02:56:34;25.40;49.30
20856;DHT22;63058;49.424;8.420;2023-06-26T02:58:59;25.40;50.00
20856;DHT22;63058;49.424;8.420;2023-06-26T03:01:25;25.40;49.50
20856;DHT22;63058;49.424;8.420;2023-06-26T03:03:51;25.30;49.50
20856;DHT22;63058;49.424;8.420;2023-06-26T03:06:16;25.40;49.80
20856;DHT22;63058;49.424;8.420;2023-06-26T03:08:42;25.30;49.70
20856;DHT22;63058;49.424;8.420;2023-06-26T03:11:08;25.30;49.90
20856;DHT22;63058;49.424;8.420;2023-06-26T03:13:35;25.30;49.90
20856;DHT22;63058;49.424;8.420;2023-06-26T03:16:01;25.30;49.90
20856;DHT22;63058;49.424;8.420;2023-06-26T03:18:27;25.30;49.90
20856;DHT22;63058;49.424;8.420;2023-06-26T03:20:53;25.30;50.00
20856;DHT22;63058;49.424;8.420;2023-06-26T03:23:23;25.30;50.00
20856;DHT22;63058;49.424;8.420;2023-06-26T03:25:49;25.30;50.20
20856;DHT22;63058;49.424;8.420;2023-06-26T03:28:15;25.30;50.40
20856;DHT22;63058;49.424;8.420;2023-06-26T03:30:41;25.40;50.40
20856;DHT22;63058;49.424;8.420;2023-06-26T03:33:06;25.40;50.40
20856;DHT22;63058;49.424;8.420;2023-06-26T03:35:32;25.50;50.40
20856;DHT22;63058;49.424;8.420;2023-06-26T03:37:58;25.60;50.40
20856;DHT22;63058;49.424;8.420;2023-06-26T03:40:24;25.60;50.40
20856;DHT22;63058;49.424;8.420;2023-06-26T03:42:50;25.70;50.40
20856;DHT22;63058;49.424;8.420;2023-06-26T03:45:15;25.80;50.40
20856;DHT22;63058;49.424;8.420;2023-06-26T03:47:41;25.80;50.30
20856;DHT22;63058;49.424;8.420;2023-06-26T03:50:07;25.80;50.20
20856;DHT22;63058;49.424;8.420;2023-06-26T03:52:32;25.90;50.20
20856;DHT22;63058;49.424;8.420;2023-06-26T03:54:58;26.00;50.10
20856;DHT22;63058;49.424;8.420;2023-06-26T03:57:24;26.00;50.10
20856;DHT22;63058;49.424;8.420;2023-06-26T03:59:50;26.00;50.10
20856;DHT22;63058;49.424;8.420;2023-06-26T04:02:15;26.00;50.20
20856;DHT22;63058;49.424;8.420;2023-06-26T04:04:41;26.00;50.10
20856;DHT22;63058;49.424;8.420;2023-06-26T04:07:06;26.00;50.20
20856;DHT22;63058;49.424;8.420;2023-06-26T04:09:32;25.90;50.20
20856;DHT22;63058;49.424;8.420;2023-06-26T04:11:57;25.90;50.30
20856;DHT22;63058;49.424;8.420;2023-06-26T04:14:23;25.90;50.40
20856;DHT22;63058;49.424;8.420;2023-06-26T04:16:48;25.90;50.40
20856;DHT22;63058;49.424;8.420;2023-06-26T04:19:14;25.90;50.60
20856;DHT22;63058;49.424;8.420;2023-06-26T04:21:40;25.90;50.60
20856;DHT22;63058;49.424;8.420;2023-06-26T04:24:05;25.90;50.80
20856;DHT22;63058;49.424;8.420;2023-06-26T04:26:31;25.90;50.70
20856;DHT22;63058;49.424;8.420;2023-06-26T04:28:56;25.90;50.70
20856;DHT22;63058;49.424;8.420;2023-06-26T04:31:22;26.00;50.80
20856;DHT22;63058;49.424;8.420;2023-06-26T04:33:48;26.10;50.80
20856;DHT22;63058;49.424;8.420;2023-06-26T04:36:19;26.10;50.70
20856;DHT22;63058;49.424;8.420;2023-06-26T04:38:45;26.20;50.80
20856;DHT22;63058;49.424;8.420;2023-06-26T04:41:11;26.30;50.70
20856;DHT22;63058;49.424;8.420;2023-06-26T04:43:36;26.40;50.60
20856;DHT22;63058;49.424;8.420;2023-06-26T04:46:05;26.40;50.60
20856;DHT22;63058;49.424;8.420;2023-06-26T04:48:31;26.50;50.60
20856;DHT22;63058;49.424;8.420;2023-06-26T04:50:57;26.50;50.50
20856;DHT22;63058;49.424;8.420;2023-06-26T04:53:24;26.60;50.50
20856;DHT22;63058;49.424;8.420;2023-06-26T04:55:51;26.60;50.50
20856;DHT22;63058;49.424;8.420;2023-06-26T04:58:17;26.70;50.40
20856;DHT22;63058;49.424;8.420;2023-06-26T05:00:42;26.70;50.30
20856;DHT22;63058;49.424;8.420;2023-06-26T05:03:12;26.70;50.30
20856;DHT22;63058;49.424;8.420;2023-06-26T05:05:38;26.80;50.40
20856;DHT22;63058;49.424;8.420;2023-06-26T05:08:21;26.80;50.20
20856;DHT22;63058;49.424;8.420;2023-06-26T05:10:47;26.80;50.20
20856;DHT22;63058;49.424;8.420;2023-06-26T05:13:13;26.80;50.10
20856;DHT22;63058;49.424;8.420;2023-06-26T05:15:44;26.90;50.10
20856;DHT22;63058;49.424;8.420;2023-06-26T05:18:10;26.90;50.10
20856;DHT22;63058;49.424;8.420;2023-06-26T05:20:36;27.00;50.10
20856;DHT22;63058;49.424;8.420;2023-06-26T05:23:02;27.00;50.00
20856;DHT22;63058;49.424;8.420;2023-06-26T05:25:29;27.00;50.00
20856;DHT22;63058;49.424;8.420;2023-06-26T05:27:56;27.10;50.00
20856;DHT22;63058;49.424;8.420;2023-06-26T05:30:23;27.10;49.90
20856;DHT22;63058;49.424;8.420;2023-06-26T05:32:51;27.10;50.00
20856;DHT22;63058;49.424;8.420;2023-06-26T05:35:17;27.20;50.00
20856;DHT22;63058;49.424;8.420;2023-06-26T05:37:43;27.20;50.00
20856;DHT22;63058;49.424;8.420;2023-06-26T05:40:10;27.20;49.90
20856;DHT22;63058;49.424;8.420;2023-06-26T05:42:36;27.30;49.90
20856;DHT22;63058;49.424;8.420;2023-06-26T05:45:01;27.30;50.40
20856;DHT22;63058;49.424;8.420;2023-06-26T05:47:27;27.40;49.90
20856;DHT22;63058;49.424;8.420;2023-06-26T05:49:52;27.40;49.80
20856;DHT22;63058;49.424;8.420;2023-06-26T05:52:18;27.50;49.70
20856;DHT22;63058;49.424;8.420;2023-06-26T05:54:44;27.50;49.80
20856;DHT22;63058;49.424;8.420;2023-06-26T05:57:10;27.50;49.90
20856;DHT22;63058;49.424;8.420;2023-06-26T05:59:39;27.60;49.80
20856;DHT22;63058;49.424;8.420;2023-06-26T06:02:06;27.60;50.00
20856;DHT22;63058;49.424;8.420;2023-06-26T06:04:32;27.60;49.70
20856;DHT22;63058;49.424;8.420;2023-06-26T06:06:57;27.60;49.60
20856;DHT22;63058;49.424;8.420;2023-06-26T06:09:23;27.60;49.70
20856;DHT22;63058;49.424;8.420;2023-06-26T06:11:48;27.70;49.70
20856;DHT22;63058;49.424;8.420;2023-06-26T06:14:14;27.80;49.70
20856;DHT22;63058;49.424;8.420;2023-06-26T06:16:39;27.70;49.70
20856;DHT22;63058;49.424;8.420;2023-06-26T06:19:05;27.80;50.30
20856;DHT22;63058;49.424;8.420;2023-06-26T06:21:33;27.80;49.70
20856;DHT22;63058;49.424;8.420;2023-06-26T06:23:58;27.90;49.60
20856;DHT22;63058;49.424;8.420;2023-06-26T06:26:24;27.90;49.60
20856;DHT22;63058;49.424;8.420;2023-06-26T06:28:49;28.00;49.70
20856;DHT22;63058;49.424;8.420;2023-06-26T06:31:15;28.10;49.70
20856;DHT22;63058;49.424;8.420;2023-06-26T06:33:40;28.10;49.50
20856;DHT22;63058;49.424;8.420;2023-06-26T06:36:06;28.10;49.40
20856;DHT22;63058;49.424;8.420;2023-06-26T06:38:32;28.20;49.40
20856;DHT22;63058;49.424;8.420;2023-06-26T06:40:57;28.20;49.40
20856;DHT22;63058;49.424;8.420;2023-06-26T06:43:23;28.30;49.40
20856;DHT22;63058;49.424;8.420;2023-06-26T06:45:48;28.30;49.40
20856;DHT22;63058;49.424;8.420;2023-06-26T06:48:14;28.40;49.30
20856;DHT22;63058;49.424;8.420;2023-06-26T06:50:39;28.40;49.30
20856;DHT22;63058;49.424;8.420;2023-06-26T06:53:05;28.40;49.30
20856;DHT22;63058;49.424;8.420;2023-06-26T06:55:31;28.40;49.30
20856;DHT22;63058;49.424;8.420;2023-06-26T06:57:56;28.40;49.40
20856;DHT22;63058;49.424;8.420;2023-06-26T07:00:22;28.40;49.30
20856;DHT22;63058;49.424;8.420;2023-06-26T07:02:47;28.50;49.40
20856;DHT22;63058;49.424;8.420;2023-06-26T07:05:13;28.50;49.30
20856;DHT22;63058;49.424;8.420;2023-06-26T07:07:39;28.60;49.30
20856;DHT22;63058;49.424;8.420;2023-06-26T07:10:09;28.70;49.30
20856;DHT22;63058;49.424;8.420;2023-06-26T07:12:36;28.80;49.30
20856;DHT22;63058;49.424;8.420;2023-06-26T07:15:02;28.90;49.10
20856;DHT22;63058;49.424;8.420;2023-06-26T07:17:30;28.90;49.00
20856;DHT22;63058;49.424;8.420;2023-06-26T07:19:56;28.90;48.90
20856;DHT22;63058;49.424;8.420;2023-06-26T07:22:22;29.00;48.90
20856;DHT22;63058;49.424;8.420;2023-06-26T07:24:48;29.10;48.80
20856;DHT22;63058;49.424;8.420;2023-06-26T07:27:15;29.10;48.70
20856;DHT22;63058;49.424;8.420;2023-06-26T07:29:41;29.20;48.90
20856;DHT22;63058;49.424;8.420;2023-06-26T07:32:06;29.30;48.60
20856;DHT22;63058;49.424;8.420;2023-06-26T07:34:32;29.40;48.10
20856;DHT22;63058;49.424;8.420;2023-06-26T07:36:58;29.50;48.00
20856;DHT22;63058;49.424;8.420;2023-06-26T07:39:23;29.50;47.90
20856;DHT22;63058;49.424;8.420;2023-06-26T07:41:49;29.50;48.00
20856;DHT22;63058;49.424;8.420;2023-06-26T07:44:14;29.50;47.90
20856;DHT22;63058;49.424;8.420;2023-06-26T07:46:40;29.60;47.50
20856;DHT22;63058;49.424;8.420;2023-06-26T07:49:05;29.70;47.80
20856;DHT22;63058;49.424;8.420;2023-06-26T07:51:31;29.70;48.00
20856;DHT22;63058;49.424;8.420;2023-06-26T07:53:57;29.80;48.00
20856;DHT22;63058;49.424;8.420;2023-06-26T07:56:22;29.80;47.80
20856;DHT22;63058;49.424;8.420;2023-06-26T07:58:48;30.00;47.80
20856;DHT22;63058;49.424;8.420;2023-06-26T08:01:14;30.10;47.70
20856;DHT22;63058;49.424;8.420;2023-06-26T08:03:39;30.20;47.50
20856;DHT22;63058;49.424;8.420;2023-06-26T08:06:05;30.30;47.50
20856;DHT22;63058;49.424;8.420;2023-06-26T08:08:31;30.40;47.50
20856;DHT22;63058;49.424;8.420;2023-06-26T08:10:57;30.50;47.20
20856;DHT22;63058;49.424;8.420;2023-06-26T08:13:22;30.60;47.20
20856;DHT22;63058;49.424;8.420;2023-06-26T08:15:48;30.70;47.00
20856;DHT22;63058;49.424;8.420;2023-06-26T08:18:13;30.80;47.00
20856;DHT22;63058;49.424;8.420;2023-06-26T08:20:39;31.00;46.80
20856;DHT22;63058;49.424;8.420;2023-06-26T08:23:04;31.10;46.60
20856;DHT22;63058;49.424;8.420;2023-06-26T08:25:30;31.30;46.40
20856;DHT22;63058;49.424;8.420;2023-06-26T08:27:56;31.30;46.10
20856;DHT22;63058;49.424;8.420;2023-06-26T08:30:22;31.40;46.10
20856;DHT22;63058;49.424;8.420;2023-06-26T08:32:48;31.50;46.00
20856;DHT22;63058;49.424;8.420;2023-06-26T08:35:13;31.60;45.80
20856;DHT22;63058;49.424;8.420;2023-06-26T08:37:39;31.70;46.10
20856;DHT22;63058;49.424;8.420;2023-06-26T08:40:06;31.70;46.00
20856;DHT22;63058;49.424;8.420;2023-06-26T08:42:32;31.90;45.80
20856;DHT22;63058;49.424;8.420;2023-06-26T08:44:57;32.00;45.50
20856;DHT22;63058;49.424;8.420;2023-06-26T08:47:23;32.20;45.40
20856;DHT22;63058;49.424;8.420;2023-06-26T08:50:11;32.30;45.10
20856;DHT22;63058;49.424;8.420;2023-06-26T08:52:43;32.40;44.70
20856;DHT22;63058;49.424;8.420;2023-06-26T08:55:12;32.60;44.80
20856;DHT22;63058;49.424;8.420;2023-06-26T08:57:39;32.70;45.30
20856;DHT22;63058;49.424;8.420;2023-06-26T09:00:06;32.90;44.90
20856;DHT22;63058;49.424;8.420;2023-06-26T09:02:34;33.00;44.60
20856;DHT22;63058;49.424;8.420;2023-06-26T09:05:02;33.20;44.10
20856;DHT22;63058;49.424;8.420;2023-06-26T09:07:27;33.20;44.00
20856;DHT22;63058;49.424;8.420;2023-06-26T09:09:54;33.40;43.50
20856;DHT22;63058;49.424;8.420;2023-06-26T09:12:20;33.50;43.40
20856;DHT22;63058;49.424;8.420;2023-06-26T09:14:46;33.40;43.00
20856;DHT22;63058;49.424;8.420;2023-06-26T09:17:13;33.50;42.90
20856;DHT22;63058;49.424;8.420;2023-06-26T09:19:38;33.50;42.90
20856;DHT22;63058;49.424;8.420;2023-06-26T09:22:04;33.60;42.90
20856;DHT22;63058;49.424;8.420;2023-06-26T09:24:30;33.60;42.70
20856;DHT22;63058;49.424;8.420;2023-06-26T09:26:56;33.70;42.70
20856;DHT22;63058;49.424;8.420;2023-06-26T09:29:21;33.70;42.50
20856;DHT22;63058;49.424;8.420;2023-06-26T09:31:47;33.80;42.30
20856;DHT22;63058;49.424;8.420;2023-06-26T09:34:12;33.90;42.30
20856;DHT22;63058;49.424;8.420;2023-06-26T09:36:38;33.90;42.30
20856;DHT22;63058;49.424;8.420;2023-06-26T09:39:06;34.00;42.10
20856;DHT22;63058;49.424;8.420;2023-06-26T09:41:45;34.10;41.80
20856;DHT22;63058;49.424;8.420;2023-06-26T09:44:13;34.10;41.50
20856;DHT22;63058;49.424;8.420;2023-06-26T09:46:39;34.10;41.30
20856;DHT22;63058;49.424;8.420;2023-06-26T09:49:09;34.10;41.50
20856;DHT22;63058;49.424;8.420;2023-06-26T09:51:44;34.00;41.50
20856;DHT22;63058;49.424;8.420;2023-06-26T09:54:10;34.00;41.50
20856;DHT22;63058;49.424;8.420;2023-06-26T09:56:35;33.90;41.80
20856;DHT22;63058;49.424;8.420;2023-06-26T09:59:04;34.00;41.90
20856;DHT22;63058;49.424;8.420;2023-06-26T10:01:31;34.00;41.80
20856;DHT22;63058;49.424;8.420;2023-06-26T10:03:57;34.10;41.90
20856;DHT22;63058;49.424;8.420;2023-06-26T10:06:34;34.20;42.00
20856;DHT22;63058;49.424;8.420;2023-06-26T10:09:02;34.30;41.70
20856;DHT22;63058;49.424;8.420;2023-06-26T10:11:39;34.30;41.50
20856;DHT22;63058;49.424;8.420;2023-06-26T10:14:07;34.30;41.30
20856;DHT22;63058;49.424;8.420;2023-06-26T10:16:35;34.20;41.20
20856;DHT22;63058;49.424;8.420;2023-06-26T10:19:05;34.20;41.50
20856;DHT22;63058;49.424;8.420;2023-06-26T10:21:34;34.20;41.40
20856;DHT22;63058;49.424;8.420;2023-06-26T10:24:00;34.20;41.40
20856;DHT22;63058;49.424;8.420;2023-06-26T10:26:28;34.20;41.40
20856;DHT22;63058;49.424;8.420;2023-06-26T10:28:55;34.00;41.20
20856;DHT22;63058;49.424;8.420;2023-06-26T10:31:23;34.00;41.40
20856;DHT22;63058;49.424;8.420;2023-06-26T10:33:51;34.00;41.90
20856;DHT22;63058;49.424;8.420;2023-06-26T10:36:19;34.00;42.10
20856;DHT22;63058;49.424;8.420;2023-06-26T10:38:56;34.10;42.20
20856;DHT22;63058;49.424;8.420;2023-06-26T10:41:24;34.30;41.70
20856;DHT22;63058;49.424;8.420;2023-06-26T10:44:12;34.40;41.70
20856;DHT22;63058;49.424;8.420;2023-06-26T10:46:53;34.40;41.20
20856;DHT22;63058;49.424;8.420;2023-06-26T10:49:27;34.40;41.00
20856;DHT22;63058;49.424;8.420;2023-06-26T10:51:53;34.40;41.00
20856;DHT22;63058;49.424;8.420;2023-06-26T10:54:20;34.30;41.10
20856;DHT22;63058;49.424;8.420;2023-06-26T10:56:49;34.30;41.10
20856;DHT22;63058;49.424;8.420;2023-06-26T10:59:17;34.20;41.00
20856;DHT22;63058;49.424;8.420;2023-06-26T11:01:44;34.10;41.00
20856;DHT22;63058;49.424;8.420;2023-06-26T11:04:10;34.00;41.10
20856;DHT22;63058;49.424;8.420;2023-06-26T11:06:38;33.90;41.30
20856;DHT22;63058;49.424;8.420;2023-06-26T11:14:18;33.90;41.50
20856;DHT22;63058;49.424;8.420;2023-06-26T11:16:44;34.10;41.60
20856;DHT22;63058;49.424;8.420;2023-06-26T11:19:10;34.30;41.60
20856;DHT22;63058;49.424;8.420;2023-06-26T11:21:38;34.60;41.50
20856;DHT22;63058;49.424;8.420;2023-06-26T11:24:05;34.90;41.50
20856;DHT22;63058;49.424;8.420;2023-06-26T11:26:38;35.30;41.50
20856;DHT22;63058;49.424;8.420;2023-06-26T11:29:04;35.70;40.90
20856;DHT22;63058;49.424;8.420;2023-06-26T11:31:30;36.20;40.30
20856;DHT22;63058;49.424;8.420;2023-06-26T11:33:57;36.60;40.20
20856;DHT22;63058;49.424;8.420;2023-06-26T11:36:25;36.90;39.90
20856;DHT22;63058;49.424;8.420;2023-06-26T11:39:01;37.20;39.40
20856;DHT22;63058;49.424;8.420;2023-06-26T11:41:32;37.60;38.10
20856;DHT22;63058;49.424;8.420;2023-06-26T11:44:02;37.70;37.90
20856;DHT22;63058;49.424;8.420;2023-06-26T11:46:28;37.70;37.10
20856;DHT22;63058;49.424;8.420;2023-06-26T11:48:54;37.50;36.70
20856;DHT22;63058;49.424;8.420;2023-06-26T11:51:20;37.30;36.60
20856;DHT22;63058;49.424;8.420;2023-06-26T11:53:46;37.00;36.80
20856;DHT22;63058;49.424;8.420;2023-06-26T11:56:14;36.70;37.00
20856;DHT22;63058;49.424;8.420;2023-06-26T11:59:03;36.40;36.90
20856;DHT22;63058;49.424;8.420;2023-06-26T12:01:33;36.20;37.20
20856;DHT22;63058;49.424;8.420;2023-06-26T12:04:01;36.10;37.50
20856;DHT22;63058;49.424;8.420;2023-06-26T12:06:29;36.10;37.30
20856;DHT22;63058;49.424;8.420;2023-06-26T12:08:56;36.00;37.00
20856;DHT22;63058;49.424;8.420;2023-06-26T12:11:23;36.10;37.70
20856;DHT22;63058;49.424;8.420;2023-06-26T12:13:50;36.30;37.90
20856;DHT22;63058;49.424;8.420;2023-06-26T12:16:15;36.60;37.80
20856;DHT22;63058;49.424;8.420;2023-06-26T12:18:41;37.00;37.30
20856;DHT22;63058;49.424;8.420;2023-06-26T12:21:07;37.40;36.50
20856;DHT22;63058;49.424;8.420;2023-06-26T12:23:39;37.70;36.00
20856;DHT22;63058;49.424;8.420;2023-06-26T12:26:21;38.10;34.90
20856;DHT22;63058;49.424;8.420;2023-06-26T12:28:47;38.40;34.70
20856;DHT22;63058;49.424;8.420;2023-06-26T12:31:16;38.60;33.50
20856;DHT22;63058;49.424;8.420;2023-06-26T12:33:45;38.70;33.10
20856;DHT22;63058;49.424;8.420;2023-06-26T12:36:12;38.80;32.70
20856;DHT22;63058;49.424;8.420;2023-06-26T12:38:37;38.90;32.90
20856;DHT22;63058;49.424;8.420;2023-06-26T12:41:03;39.00;33.20
20856;DHT22;63058;49.424;8.420;2023-06-26T12:43:29;39.00;32.80
20856;DHT22;63058;49.424;8.420;2023-06-26T12:45:55;39.10;32.20
20856;DHT22;63058;49.424;8.420;2023-06-26T12:48:22;39.20;31.50
20856;DHT22;63058;49.424;8.420;2023-06-26T12:50:47;39.30;31.60
20856;DHT22;63058;49.424;8.420;2023-06-26T12:53:13;39.40;31.60
20856;DHT22;63058;49.424;8.420;2023-06-26T12:55:39;39.60;31.20
20856;DHT22;63058;49.424;8.420;2023-06-26T12:58:04;39.70;31.20
20856;DHT22;63058;49.424;8.420;2023-06-26T13:00:30;39.80;31.20
20856;DHT22;63058;49.424;8.420;2023-06-26T13:02:57;40.00;31.10
20856;DHT22;63058;49.424;8.420;2023-06-26T13:05:24;40.20;31.20
20856;DHT22;63058;49.424;8.420;2023-06-26T13:07:49;40.30;30.60
20856;DHT22;63058;49.424;8.420;2023-06-26T13:10:15;40.30;30.30
20856;DHT22;63058;49.424;8.420;2023-06-26T13:12:40;40.30;30.10
20856;DHT22;63058;49.424;8.420;2023-06-26T13:15:06;40.30;29.80
20856;DHT22;63058;49.424;8.420;2023-06-26T13:17:32;40.30;29.80
20856;DHT22;63058;49.424;8.420;2023-06-26T13:19:58;40.20;29.30
20856;DHT22;63058;49.424;8.420;2023-06-26T13:22:23;40.20;29.30
20856;DHT22;63058;49.424;8.420;2023-06-26T13:24:49;40.10;29.40
20856;DHT22;63058;49.424;8.420;2023-06-26T13:27:14;40.10;29.50
20856;DHT22;63058;49.424;8.420;2023-06-26T13:29:41;40.10;29.10
20856;DHT22;63058;49.424;8.420;2023-06-26T13:32:07;40.10;28.80
20856;DHT22;63058;49.424;8.420;2023-06-26T13:34:33;40.10;28.70
20856;DHT22;63058;49.424;8.420;2023-06-26T13:36:58;40.00;28.60
20856;DHT22;63058;49.424;8.420;2023-06-26T13:39:25;40.00;28.70
20856;DHT22;63058;49.424;8.420;2023-06-26T13:41:51;39.90;28.70
20856;DHT22;63058;49.424;8.420;2023-06-26T13:44:16;39.90;28.40
20856;DHT22;63058;49.424;8.420;2023-06-26T13:46:42;40.00;27.90
20856;DHT22;63058;49.424;8.420;2023-06-26T13:49:07;39.90;27.70
20856;DHT22;63058;49.424;8.420;2023-06-26T13:51:33;39.90;27.60
20856;DHT22;63058;49.424;8.420;2023-06-26T13:53:59;39.90;27.70
20856;DHT22;63058;49.424;8.420;2023-06-26T13:56:26;39.80;27.20
20856;DHT22;63058;49.424;8.420;2023-06-26T13:58:51;39.70;27.20
20856;DHT22;63058;49.424;8.420;2023-06-26T14:01:17;39.60;27.50
20856;DHT22;63058;49.424;8.420;2023-06-26T14:03:42;39.60;27.40
20856;DHT22;63058;49.424;8.420;2023-06-26T14:06:08;39.70;27.50
20856;DHT22;63058;49.424;8.420;2023-06-26T14:08:33;39.70;27.70
20856;DHT22;63058;49.424;8.420;2023-06-26T14:10:59;39.80;27.70
20856;DHT22;63058;49.424;8.420;2023-06-26T14:13:26;39.90;27.30
20856;DHT22;63058;49.424;8.420;2023-06-26T14:15:51;40.00;26.80
20856;DHT22;63058;49.424;8.420;2023-06-26T14:18:18;40.10;26.60
20856;DHT22;63058;49.424;8.420;2023-06-26T14:20:43;40.00;26.30
20856;DHT22;63058;49.424;8.420;2023-06-26T14:23:09;39.90;26.40
20856;DHT22;63058;49.424;8.420;2023-06-26T14:25:35;39.80;26.00
20856;DHT22;63058;49.424;8.420;2023-06-26T14:28:01;39.60;25.90
20856;DHT22;63058;49.424;8.420;2023-06-26T14:30:26;39.20;25.90
20856;DHT22;63058;49.424;8.420;2023-06-26T14:32:52;38.90;25.90
20856;DHT22;63058;49.424;8.420;2023-06-26T14:35:18;38.60;25.80
20856;DHT22;63058;49.424;8.420;2023-06-26T14:37:43;38.30;25.80
20856;DHT22;63058;49.424;8.420;2023-06-26T14:40:09;38.00;25.60
20856;DHT22;63058;49.424;8.420;2023-06-26T14:42:35;37.80;25.80
20856;DHT22;63058;49.424;8.420;2023-06-26T14:45:01;37.50;26.00
20856;DHT22;63058;49.424;8.420;2023-06-26T14:47:27;37.20;26.00
20856;DHT22;63058;49.424;8.420;2023-06-26T14:49:53;37.00;25.90
20856;DHT22;63058;49.424;8.420;2023-06-26T14:52:18;36.70;25.90
20856;DHT22;63058;49.424;8.420;2023-06-26T14:54:44;36.60;26.30
20856;DHT22;63058;49.424;8.420;2023-06-26T14:57:09;36.50;26.20
20856;DHT22;63058;49.424;8.420;2023-06-26T14:59:36;36.50;26.10
20856;DHT22;63058;49.424;8.420;2023-06-26T15:02:01;36.60;26.40
20856;DHT22;63058;49.424;8.420;2023-06-26T15:04:27;36.70;26.50
20856;DHT22;63058;49.424;8.420;2023-06-26T15:06:53;36.90;26.20
20856;DHT22;63058;49.424;8.420;2023-06-26T15:09:18;37.10;26.00
20856;DHT22;63058;49.424;8.420;2023-06-26T15:11:44;37.20;26.00
20856;DHT22;63058;49.424;8.420;2023-06-26T15:14:10;37.20;26.00
20856;DHT22;63058;49.424;8.420;2023-06-26T15:16:35;37.20;25.90
20856;DHT22;63058;49.424;8.420;2023-06-26T15:19:01;37.10;25.90
20856;DHT22;63058;49.424;8.420;2023-06-26T15:21:27;36.90;26.00
20856;DHT22;63058;49.424;8.420;2023-06-26T15:23:53;36.70;25.80
20856;DHT22;63058;49.424;8.420;2023-06-26T15:26:18;36.50;25.90
20856;DHT22;63058;49.424;8.420;2023-06-26T15:28:44;36.30;25.90
20856;DHT22;63058;49.424;8.420;2023-06-26T15:31:09;36.20;26.10
20856;DHT22;63058;49.424;8.420;2023-06-26T15:33:35;36.00;26.20
20856;DHT22;63058;49.424;8.420;2023-06-26T15:36:00;35.90;26.10